Time;durP1;ratioP1;P1;durP2;ratioP2;P2;SDS_P1;SDS_P2;PMS_P1;PMS_P2;Temp;Humidity;BMP_temperature;BMP_pressure;BME280_temperature;BME280_humidity;BME280_pressure;Samples;Min_cycle;Max_cycle;Signal;HPM_P1;HPM_P2
2023/10/27 00:02:09;;;;;;;;;;;;;;;11.02;100.00;99096.97;5133024;27;20010;-84
2023/10/27 00:04:34;;;;;;;;;;;;;;;11.11;100.00;99100.81;5131897;27;19923;-84
2023/10/27 00:07:00;;;;;;;;;;;;;;;11.22;100.00;99093.78;5114745;27;19972;-84
2023/10/27 00:09:25;;;;;;;;;;;;;;;11.44;100.00;99093.75;5111976;28;19939;-85
2023/10/27 00:11:50;;;;;;;;;;;;;;;11.64;100.00;99091.34;5112881;28;20002;-86
2023/10/27 00:14:16;;;;;;;;;;;;;;;11.74;99.42;99092.53;5113589;27;19923;-84
2023/10/27 00:16:41;;;;;;;;;;;;;;;11.56;100.00;99105.13;5116801;27;20273;-84
2023/10/27 00:19:06;;;;;;;;;;;;;;;11.62;100.00;99112.13;5118489;27;20007;-84
2023/10/27 00:21:31;;;;;;;;;;;;;;;11.76;100.00;99107.22;5128060;27;19931;-84
2023/10/27 00:23:57;;;;;;;;;;;;;;;11.75;100.00;99088.78;5115222;27;19931;-84
2023/10/27 00:26:22;;;;;;;;;;;;;;;11.84;100.00;99081.94;5113235;28;19911;-84
2023/10/27 00:28:47;;;;;;;;;;;;;;;11.83;100.00;99091.03;5144468;27;19955;-85
2023/10/27 00:31:13;;;;;;;;;;;;;;;11.72;100.00;99086.63;5132781;27;19912;-84
2023/10/27 00:33:38;;;;;;;;;;;;;;;11.72;100.00;99086.63;5133174;27;19915;-84
2023/10/27 00:36:04;;;;;;;;;;;;;;;11.26;100.00;99077.00;5121719;27;19916;-85
2023/10/27 00:38:30;;;;;;;;;;;;;;;11.10;100.00;99085.06;5123241;27;19915;-84
2023/10/27 00:40:55;;;;;;;;;;;;;;;10.89;100.00;99074.13;5116344;27;19912;-84
2023/10/27 00:43:23;;;;;;;;;;;;;;;11.25;100.00;99078.06;5129176;27;20934;-85
2023/10/27 00:45:50;;;;;;;;;;;;;;;11.57;100.00;99076.59;5119324;27;20288;-86
2023/10/27 00:48:19;;;;;;;;;;;;;;;11.70;100.00;99086.06;5125306;27;19916;-84
2023/10/27 00:50:45;;;;;;;;;;;;;;;11.78;100.00;99073.06;5111144;28;19920;-84
2023/10/27 00:53:11;;;;;;;;;;;;;;;11.86;100.00;99069.16;5144355;27;19915;-84
2023/10/27 00:55:36;;;;;;;;;;;;;;;11.97;100.00;99076.25;5120042;27;19955;-86
2023/10/27 00:58:02;;;;;;;;;;;;;;;11.35;100.00;99065.91;5103687;27;19911;-84
2023/10/27 01:00:28;;;;;;;;;;;;;;;11.13;100.00;99072.03;5133487;27;20363;-83
2023/10/27 01:02:53;;;;;;;;;;;;;;;11.62;100.00;99080.09;5119201;27;19918;-84
2023/10/27 01:05:18;;;;;;;;;;;;;;;11.40;100.00;99077.47;5112627;27;19941;-85
2023/10/27 01:07:44;;;;;;;;;;;;;;;11.37;100.00;99080.59;5112486;27;20380;-84
2023/10/27 01:10:09;;;;;;;;;;;;;;;11.48;100.00;99078.06;5125264;27;19977;-85
2023/10/27 01:12:34;;;;;;;;;;;;;;;11.82;100.00;99082.19;5111438;28;19955;-85
2023/10/27 01:15:00;;;;;;;;;;;;;;;11.87;100.00;99081.47;5113749;27;19950;-85
2023/10/27 01:17:25;;;;;;;;;;;;;;;11.85;100.00;99083.56;5115153;27;19963;-84
2023/10/27 01:19:50;;;;;;;;;;;;;;;11.99;100.00;99084.81;5121873;27;19955;-85
2023/10/27 01:22:16;;;;;;;;;;;;;;;11.99;100.00;99082.16;5125126;27;20297;-84
2023/10/27 01:24:41;;;;;;;;;;;;;;;12.30;100.00;99084.28;5123395;27;19919;-84
2023/10/27 01:27:07;;;;;;;;;;;;;;;11.76;100.00;99080.53;5124722;27;19923;-84
2023/10/27 01:29:33;;;;;;;;;;;;;;;12.01;100.00;99066.66;5117740;27;20364;-85
2023/10/27 01:31:58;;;;;;;;;;;;;;;12.13;100.00;99068.38;5115902;27;20388;-84
2023/10/27 01:34:23;;;;;;;;;;;;;;;11.72;100.00;99078.63;5098166;27;19922;-85
2023/10/27 01:36:49;;;;;;;;;;;;;;;11.31;100.00;99078.94;5126324;27;19912;-84
2023/10/27 01:39:14;;;;;;;;;;;;;;;10.89;100.00;99081.28;5121142;27;19919;-84
2023/10/27 01:41:39;;;;;;;;;;;;;;;11.51;100.00;99082.91;5114874;27;20376;-85
2023/10/27 01:44:05;;;;;;;;;;;;;;;11.38;100.00;99073.41;5113569;27;19921;-84
2023/10/27 01:46:30;;;;;;;;;;;;;;;11.47;100.00;99077.25;5133640;27;20345;-84
2023/10/27 01:48:55;;;;;;;;;;;;;;;11.24;100.00;99073.78;5125085;27;20441;-84
2023/10/27 01:51:21;;;;;;;;;;;;;;;11.42;100.00;99086.03;5123141;27;19923;-83
2023/10/27 01:53:46;;;;;;;;;;;;;;;11.51;100.00;99089.06;5117132;27;19922;-85
2023/10/27 01:56:11;;;;;;;;;;;;;;;11.55;100.00;99100.06;5114052;27;19916;-86
2023/10/27 01:58:40;;;;;;;;;;;;;;;11.36;100.00;99096.88;5113269;27;20420;-85
2023/10/27 02:01:06;;;;;;;;;;;;;;;11.35;100.00;99106.75;5118734;27;19915;-84
2023/10/27 02:03:32;;;;;;;;;;;;;;;11.78;100.00;99110.47;5117051;27;19916;-85
2023/10/27 02:05:58;;;;;;;;;;;;;;;11.82;100.00;99105.44;5110703;28;19923;-84
2023/10/27 02:08:23;;;;;;;;;;;;;;;11.74;100.00;99097.88;5114906;28;19920;-84
2023/10/27 02:10:48;;;;;;;;;;;;;;;11.73;100.00;99096.22;5110560;28;19912;-87
2023/10/27 02:13:13;;;;;;;;;;;;;;;11.60;100.00;99114.25;5121392;28;19915;-84
2023/10/27 02:15:39;;;;;;;;;;;;;;;11.80;100.00;99124.38;5118970;28;19916;-85
2023/10/27 02:18:04;;;;;;;;;;;;;;;11.72;100.00;99126.69;5117017;27;19951;-84
2023/10/27 02:20:30;;;;;;;;;;;;;;;11.78;100.00;99121.16;5128003;27;19919;-83
2023/10/27 02:22:55;;;;;;;;;;;;;;;11.76;100.00;99122.47;5133853;27;19915;-83
2023/10/27 02:25:21;;;;;;;;;;;;;;;11.46;100.00;99124.53;5129265;27;19919;-83
2023/10/27 02:27:46;;;;;;;;;;;;;;;11.66;100.00;99126.59;5121619;27;19923;-84
2023/10/27 02:30:14;;;;;;;;;;;;;;;11.77;100.00;99124.06;5135064;27;19911;-83
2023/10/27 02:32:39;;;;;;;;;;;;;;;11.82;100.00;99116.13;5119488;27;19919;-82
2023/10/27 02:35:04;;;;;;;;;;;;;;;11.97;100.00;99123.50;5118738;27;19915;-83
2023/10/27 02:37:30;;;;;;;;;;;;;;;11.70;100.00;99120.78;5114173;28;19915;-83
2023/10/27 02:39:55;;;;;;;;;;;;;;;11.91;100.00;99128.03;5139884;27;19965;-83
2023/10/27 02:42:23;;;;;;;;;;;;;;;11.60;100.00;99130.28;5120349;27;19931;-83
2023/10/27 02:44:49;;;;;;;;;;;;;;;11.10;100.00;99125.91;5128771;27;19973;-83
2023/10/27 02:47:14;;;;;;;;;;;;;;;10.89;100.00;99113.28;5113221;27;19935;-82
2023/10/27 02:49:39;;;;;;;;;;;;;;;10.58;100.00;99096.81;5102567;27;19916;-83
2023/10/27 02:52:05;;;;;;;;;;;;;;;10.96;100.00;99097.94;5124561;27;19957;-83
2023/10/27 02:54:30;;;;;;;;;;;;;;;11.48;100.00;99094.09;5131662;27;19919;-83
2023/10/27 02:56:55;;;;;;;;;;;;;;;11.13;100.00;99106.72;5133006;27;19955;-84
2023/10/27 02:59:21;;;;;;;;;;;;;;;11.11;100.00;99100.81;5129803;27;19919;-83
2023/10/27 03:01:46;;;;;;;;;;;;;;;11.09;100.00;99108.25;5113879;28;19951;-84
2023/10/27 03:04:12;;;;;;;;;;;;;;;11.51;100.00;99121.09;5117745;27;19919;-83
2023/10/27 03:06:37;;;;;;;;;;;;;;;11.65;100.00;99111.66;5114387;28;19915;-85
2023/10/27 03:09:03;;;;;;;;;;;;;;;11.82;100.00;99100.09;5114856;28;19972;-84
2023/10/27 03:11:28;;;;;;;;;;;;;;;11.36;100.00;99102.19;5127194;27;19919;-83
2023/10/27 03:13:53;;;;;;;;;;;;;;;11.16;100.00;99098.22;5117706;27;20758;-83
2023/10/27 03:16:19;;;;;;;;;;;;;;;11.47;100.00;99103.97;5114662;28;19950;-84
2023/10/27 03:18:44;;;;;;;;;;;;;;;11.62;100.00;99101.47;5121902;27;20105;-83
2023/10/27 03:21:12;;;;;;;;;;;;;;;11.33;100.00;99102.72;5120390;27;19925;-84
2023/10/27 03:23:37;;;;;;;;;;;;;;;11.17;100.00;99097.16;5133954;27;19944;-83
2023/10/27 03:26:02;;;;;;;;;;;;;;;11.68;100.00;99098.88;5113387;28;19915;-84
2023/10/27 03:28:28;;;;;;;;;;;;;;;11.37;100.00;99103.84;5117485;27;19965;-84
2023/10/27 03:30:53;;;;;;;;;;;;;;;11.21;100.00;99100.16;5133515;27;19918;-82
2023/10/27 03:33:19;;;;;;;;;;;;;;;11.12;100.00;99091.78;5117774;27;19957;-84
2023/10/27 03:35:44;;;;;;;;;;;;;;;10.85;100.00;99092.47;5129028;27;20010;-83
2023/10/27 03:38:10;;;;;;;;;;;;;;;10.75;100.00;99089.66;5116578;27;19920;-83
2023/10/27 03:40:39;;;;;;;;;;;;;;;10.75;100.00;99092.31;5112434;28;20014;-84
2023/10/27 03:43:04;;;;;;;;;;;;;;;11.11;100.00;99092.81;5113784;28;19939;-83
2023/10/27 03:45:29;;;;;;;;;;;;;;;11.16;100.00;99087.56;5134307;27;19979;-82
2023/10/27 03:47:55;;;;;;;;;;;;;;;11.30;100.00;99104.03;5115530;27;19916;-83
2023/10/27 03:50:20;;;;;;;;;;;;;;;11.39;100.00;99107.88;5133123;27;19917;-85
2023/10/27 03:52:46;;;;;;;;;;;;;;;11.60;100.00;99108.91;5124253;27;19918;-83
2023/10/27 03:55:12;;;;;;;;;;;;;;;11.42;100.00;99103.88;5118282;27;19915;-83
2023/10/27 03:57:38;;;;;;;;;;;;;;;11.24;100.00;99121.81;5113954;27;19958;-83
2023/10/27 04:00:04;;;;;;;;;;;;;;;10.95;100.00;99104.31;5116777;27;20014;-84
2023/10/27 04:02:30;;;;;;;;;;;;;;;11.15;100.00;99112.59;5117758;27;19947;-83
2023/10/27 04:04:55;;;;;;;;;;;;;;;11.39;100.00;99107.88;5125372;27;19922;-83
2023/10/27 04:07:20;;;;;;;;;;;;;;;11.03;100.00;99106.56;5138664;27;19989;-83
2023/10/27 04:09:46;;;;;;;;;;;;;;;10.86;100.00;99094.06;5122095;27;19920;-83
2023/10/27 04:12:11;;;;;;;;;;;;;;;10.90;100.00;99090.91;5114382;27;19916;-83
2023/10/27 04:14:36;;;;;;;;;;;;;;;11.22;100.00;99097.25;5126509;27;20002;-83
2023/10/27 04:17:01;;;;;;;;;;;;;;;11.33;100.00;99095.50;5119370;27;19915;-83
2023/10/27 04:19:27;;;;;;;;;;;;;;;11.05;100.00;99083.13;5125903;27;19920;-84
2023/10/27 04:21:52;;;;;;;;;;;;;;;11.18;100.00;99081.97;5111253;28;19911;-83
2023/10/27 04:24:17;;;;;;;;;;;;;;;11.21;100.00;99074.25;5130975;27;20385;-84
2023/10/27 04:26:43;;;;;;;;;;;;;;;11.03;100.00;99082.56;5116437;27;19924;-83
2023/10/27 04:29:08;;;;;;;;;;;;;;;11.52;100.00;99079.97;5115602;27;19919;-83
2023/10/27 04:31:33;;;;;;;;;;;;;;;11.59;100.00;99069.94;5120225;27;19915;-83
2023/10/27 04:33:58;;;;;;;;;;;;;;;11.69;100.00;99073.75;5131959;27;19911;-82
2023/10/27 04:36:24;;;;;;;;;;;;;;;11.56;100.00;99070.41;5112676;27;19999;-82
2023/10/27 04:38:50;;;;;;;;;;;;;;;11.63;100.00;99071.03;5112799;27;19972;-83
2023/10/27 04:41:18;;;;;;;;;;;;;;;11.25;100.00;99066.56;5115403;27;19966;-82
2023/10/27 04:43:43;;;;;;;;;;;;;;;11.57;100.00;99072.03;5130618;27;19915;-83
2023/10/27 04:46:09;;;;;;;;;;;;;;;11.54;100.00;99088.53;5119919;27;20006;-84
2023/10/27 04:48:34;;;;;;;;;;;;;;;11.71;100.00;99087.66;5126311;27;20292;-84
2023/10/27 04:51:02;;;;;;;;;;;;;;;11.55;100.00;99078.69;5127659;27;19916;-84
2023/10/27 04:53:28;;;;;;;;;;;;;;;11.53;100.00;99092.28;5110378;28;19916;-84
2023/10/27 04:55:53;;;;;;;;;;;;;;;11.41;100.00;99092.41;5127659;27;19912;-83
2023/10/27 04:58:18;;;;;;;;;;;;;;;11.51;100.00;99091.72;5129717;27;19919;-84
2023/10/27 05:00:43;;;;;;;;;;;;;;;11.86;100.00;99095.84;5113492;27;19915;-84
2023/10/27 05:03:09;;;;;;;;;;;;;;;11.51;100.00;99089.06;5109946;28;19995;-83
2023/10/27 05:05:34;;;;;;;;;;;;;;;11.35;100.00;99084.59;5113936;27;19915;-83
2023/10/27 05:07:59;;;;;;;;;;;;;;;11.71;100.00;99088.50;5118396;27;20023;-82
2023/10/27 05:10:25;;;;;;;;;;;;;;;11.49;100.00;99093.84;5122967;27;19915;-83
2023/10/27 05:12:50;;;;;;;;;;;;;;;11.23;100.00;99088.16;5109780;28;19915;-84
2023/10/27 05:15:15;;;;;;;;;;;;;;;11.48;100.00;99088.75;5125936;27;19916;-84
2023/10/27 05:17:41;;;;;;;;;;;;;;;11.22;100.00;99083.91;5131584;27;19915;-83
2023/10/27 05:20:07;;;;;;;;;;;;;;;11.18;100.00;99087.31;5126779;27;19915;-83
2023/10/27 05:22:32;;;;;;;;;;;;;;;10.88;100.00;99087.69;5120921;27;19923;-84
2023/10/27 05:25:06;;;;;;;;;;;;;;;10.89;100.00;99089.28;5142940;27;19915;-83
2023/10/27 05:27:32;;;;;;;;;;;;;;;10.93;100.00;99085.06;5110047;28;19915;-83
2023/10/27 05:29:57;;;;;;;;;;;;;;;11.64;100.00;99087.88;5109957;28;19926;-83
2023/10/27 05:32:22;;;;;;;;;;;;;;;11.19;100.00;99080.91;5117727;27;20610;-82
2023/10/27 05:34:48;;;;;;;;;;;;;;;11.02;100.00;99081.75;5116755;27;20014;-84
2023/10/27 05:37:13;;;;;;;;;;;;;;;11.05;100.00;99091.94;5113235;27;19916;-83
2023/10/27 05:39:38;;;;;;;;;;;;;;;11.18;100.00;99095.31;5123747;27;19919;-83
2023/10/27 05:42:04;;;;;;;;;;;;;;;11.82;100.00;99089.41;5109438;28;19911;-84
2023/10/27 05:44:29;;;;;;;;;;;;;;;11.74;100.00;99089.84;5109300;28;19972;-83
2023/10/27 05:46:54;;;;;;;;;;;;;;;11.81;100.00;99098.47;5126570;27;19958;-82
2023/10/27 05:49:20;;;;;;;;;;;;;;;11.57;100.00;99088.06;5111565;28;20350;-82
2023/10/27 05:51:46;;;;;;;;;;;;;;;11.33;100.00;99090.16;5118633;27;20354;-83
2023/10/27 05:54:11;;;;;;;;;;;;;;;11.26;100.00;99093.03;5122836;27;19926;-84
2023/10/27 05:56:37;;;;;;;;;;;;;;;11.38;100.00;99100.09;5115495;27;19911;-85
2023/10/27 05:59:04;;;;;;;;;;;;;;;11.55;100.00;99106.19;5111035;28;20006;-83
2023/10/27 06:01:30;;;;;;;;;;;;;;;12.26;100.00;99110.72;5109799;28;20006;-84
2023/10/27 06:03:57;;;;;;;;;;;;;;;12.56;100.00;99106.69;5109357;28;19990;-84
2023/10/27 06:06:23;;;;;;;;;;;;;;;12.44;100.00;99105.00;5113849;28;19934;-84
2023/10/27 06:08:48;;;;;;;;;;;;;;;12.31;100.00;99105.41;5132480;28;19916;-84
2023/10/27 06:11:13;;;;;;;;;;;;;;;12.34;100.00;99109.44;5114978;28;19919;-84
2023/10/27 06:13:39;;;;;;;;;;;;;;;12.81;100.00;99106.06;5120464;28;19915;-83
2023/10/27 06:16:05;;;;;;;;;;;;;;;12.98;100.00;99097.91;5121001;28;20312;-85
2023/10/27 06:18:30;;;;;;;;;;;;;;;12.81;100.00;99098.88;5109223;28;20376;-83
2023/10/27 06:20:55;;;;;;;;;;;;;;;13.02;100.00;99096.34;5117294;28;19980;-83
2023/10/27 06:23:21;;;;;;;;;;;;;;;13.22;100.00;99107.16;5130988;28;19973;-83
2023/10/27 06:25:46;;;;;;;;;;;;;;;13.20;100.00;99105.81;5115917;28;19919;-82
2023/10/27 06:28:12;;;;;;;;;;;;;;;13.53;100.00;99101.97;5118560;28;19920;-82
2023/10/27 06:30:37;;;;;;;;;;;;;;;13.51;100.00;99109.47;5110170;28;19911;-82
2023/10/27 06:33:03;;;;;;;;;;;;;;;13.77;100.00;99101.50;5113793;28;19920;-82
2023/10/27 06:35:28;;;;;;;;;;;;;;;13.85;98.78;99104.50;5110074;28;19912;-83
2023/10/27 06:37:53;;;;;;;;;;;;;;;14.24;98.41;99111.25;5109538;28;20277;-82
2023/10/27 06:40:19;;;;;;;;;;;;;;;14.39;96.76;99100.56;5110284;28;20466;-82
2023/10/27 06:42:44;;;;;;;;;;;;;;;14.63;98.32;99092.03;5112155;28;19920;-84
2023/10/27 06:45:09;;;;;;;;;;;;;;;14.79;94.96;99107.03;5128791;28;19912;-84
2023/10/27 06:47:35;;;;;;;;;;;;;;;15.06;95.26;99100.56;5128305;27;19916;-84
2023/10/27 06:50:04;;;;;;;;;;;;;;;15.21;94.07;99103.19;5134107;27;20304;-84
2023/10/27 06:52:29;;;;;;;;;;;;;;;15.67;92.15;99108.41;5128093;28;19916;-83
2023/10/27 06:54:55;;;;;;;;;;;;;;;15.65;91.03;99112.44;5130606;28;20353;-83
2023/10/27 06:57:20;;;;;;;;;;;;;;;15.86;91.94;99107.81;5115376;28;19916;-84
2023/10/27 06:59:45;;;;;;;;;;;;;;;15.69;91.00;99100.03;5116596;28;19929;-83
2023/10/27 07:02:10;;;;;;;;;;;;;;;15.75;90.88;99095.47;5115464;28;19923;-85
2023/10/27 07:04:36;;;;;;;;;;;;;;;16.13;88.63;99096.63;5129872;27;19931;-82
2023/10/27 07:07:04;;;;;;;;;;;;;;;16.18;87.88;99103.84;5132685;27;19916;-83
2023/10/27 07:09:29;;;;;;;;;;;;;;;16.56;86.35;99099.53;5121981;27;19923;-83
2023/10/27 07:11:55;;;;;;;;;;;;;;;16.56;86.83;99094.13;5122765;27;19916;-83
2023/10/27 07:14:20;;;;;;;;;;;;;;;16.75;86.07;99091.53;5122682;27;19977;-83
2023/10/27 07:16:45;;;;;;;;;;;;;;;17.10;83.20;99092.34;5121970;28;20006;-85
2023/10/27 07:19:11;;;;;;;;;;;;;;;17.11;83.13;99088.53;5126371;27;19942;-83
2023/10/27 07:21:37;;;;;;;;;;;;;;;17.10;82.51;99089.66;5120257;27;19930;-83
2023/10/27 07:24:02;;;;;;;;;;;;;;;17.28;84.11;99088.06;5118966;27;20002;-84
2023/10/27 07:26:28;;;;;;;;;;;;;;;17.49;82.54;99088.66;5115483;28;19965;-84
2023/10/27 07:28:53;;;;;;;;;;;;;;;17.52;84.69;99077.28;5128583;27;19920;-84
2023/10/27 07:31:18;;;;;;;;;;;;;;;17.54;82.50;99079.69;5111833;27;19912;-83
2023/10/27 07:33:44;;;;;;;;;;;;;;;17.57;82.27;99082.63;5111686;28;19934;-85
2023/10/27 07:36:10;;;;;;;;;;;;;;;17.55;81.50;99082.13;5111769;28;19976;-84
2023/10/27 07:38:35;;;;;;;;;;;;;;;17.57;82.21;99074.53;5113976;27;19926;-84
2023/10/27 07:41:01;;;;;;;;;;;;;;;17.49;83.00;99075.19;5114169;27;19912;-83
2023/10/27 07:43:26;;;;;;;;;;;;;;;17.94;83.11;99078.38;5113386;27;19985;-83
2023/10/27 07:45:54;;;;;;;;;;;;;;;18.41;79.97;99071.19;5111275;28;20426;-83
2023/10/27 07:48:19;;;;;;;;;;;;;;;18.72;78.09;99070.69;5122515;27;19915;-83
2023/10/27 07:50:45;;;;;;;;;;;;;;;19.07;76.84;99071.16;5120642;27;19916;-84
2023/10/27 07:53:10;;;;;;;;;;;;;;;19.06;76.45;99080.34;5111339;27;19916;-83
2023/10/27 07:55:35;;;;;;;;;;;;;;;18.94;76.55;99069.22;5111513;27;19922;-84
2023/10/27 07:58:04;;;;;;;;;;;;;;;19.41;75.30;99072.63;5124500;27;19922;-87
2023/10/27 08:00:30;;;;;;;;;;;;;;;19.53;74.71;99075.63;5110101;27;19926;-83
2023/10/27 08:02:56;;;;;;;;;;;;;;;19.53;75.01;99070.22;5114222;27;19916;-83
2023/10/27 08:05:22;;;;;;;;;;;;;;;19.30;75.33;99055.03;5110478;28;19989;-85
2023/10/27 08:07:47;;;;;;;;;;;;;;;19.20;76.69;99053.34;5127424;27;19923;-85
2023/10/27 08:10:12;;;;;;;;;;;;;;;19.11;76.82;99050.53;5130583;27;19915;-85
2023/10/27 08:12:37;;;;;;;;;;;;;;;19.17;77.12;99048.53;5132139;27;19967;-84
2023/10/27 08:15:06;;;;;;;;;;;;;;;19.24;77.34;99041.59;5122888;27;19911;-83
2023/10/27 08:17:32;;;;;;;;;;;;;;;19.39;75.63;99045.94;5111253;28;19919;-84
2023/10/27 08:19:57;;;;;;;;;;;;;;;19.79;74.68;99039.97;5131078;27;19915;-84
2023/10/27 08:22:22;;;;;;;;;;;;;;;19.87;73.80;99031.13;5129585;27;19916;-84
2023/10/27 08:24:48;;;;;;;;;;;;;;;20.04;73.30;99012.31;5126051;27;19938;-84
2023/10/27 08:27:16;;;;;;;;;;;;;;;20.03;73.90;99021.53;5127709;27;19915;-85
2023/10/27 08:29:41;;;;;;;;;;;;;;;20.04;72.56;99020.44;5124181;27;20023;-84
2023/10/27 08:32:06;;;;;;;;;;;;;;;20.09;72.83;99024.13;5129255;27;20002;-83
2023/10/27 08:34:32;;;;;;;;;;;;;;;19.98;72.86;99013.56;5112004;27;19915;-84
2023/10/27 08:36:57;;;;;;;;;;;;;;;20.22;72.01;99034.09;5122785;27;19965;-83
2023/10/27 08:39:24;;;;;;;;;;;;;;;20.51;70.63;99036.34;5122385;27;19923;-85
2023/10/27 08:41:49;;;;;;;;;;;;;;;20.75;70.07;99025.19;5102977;28;19916;-85
2023/10/27 08:44:16;;;;;;;;;;;;;;;20.93;69.81;99025.25;5113698;27;19974;-83
2023/10/27 08:46:42;;;;;;;;;;;;;;;20.62;69.61;99017.97;5094126;28;19928;-84
2023/10/27 08:49:08;;;;;;;;;;;;;;;20.78;69.02;99023.75;5130633;27;20304;-85
2023/10/27 08:51:35;;;;;;;;;;;;;;;21.01;67.88;99028.00;5113683;27;19964;-83
2023/10/27 08:54:00;;;;;;;;;;;;;;;20.75;69.62;99027.88;5114659;27;19969;-84
2023/10/27 08:56:25;;;;;;;;;;;;;;;20.98;68.72;99033.25;5109867;28;19916;-84
2023/10/27 08:58:53;;;;;;;;;;;;;;;21.26;66.57;99023.75;5109967;28;19927;-84
2023/10/27 09:01:19;;;;;;;;;;;;;;;21.44;68.01;99023.84;5109750;28;19926;-84
2023/10/27 09:04:04;;;;;;;;;;;;;;;21.25;68.20;99030.31;5120257;27;19919;-84
2023/10/27 09:06:29;;;;;;;;;;;;;;;21.46;66.47;99032.47;5116062;27;19923;-85
2023/10/27 09:08:54;;;;;;;;;;;;;;;21.46;66.18;99027.84;5116327;27;19960;-84
2023/10/27 09:11:19;;;;;;;;;;;;;;;21.64;65.48;99031.38;5112540;27;19943;-85
2023/10/27 09:13:45;;;;;;;;;;;;;;;21.88;66.08;99016.53;5109255;28;19923;-84
2023/10/27 09:16:23;;;;;;;;;;;;;;;21.82;66.15;99001.50;5136953;27;19975;-84
2023/10/27 09:18:48;;;;;;;;;;;;;;;22.12;63.69;98998.97;5110842;27;20006;-85
2023/10/27 09:21:13;;;;;;;;;;;;;;;22.24;63.01;98988.25;5109084;27;20072;-84
2023/10/27 09:23:45;;;;;;;;;;;;;;;22.73;62.23;98986.03;5112381;27;19961;-84
2023/10/27 09:26:10;;;;;;;;;;;;;;;22.92;61.01;98982.13;5134051;27;19915;-84
2023/10/27 09:28:36;;;;;;;;;;;;;;;23.04;61.78;98979.53;5113466;27;19947;-84
2023/10/27 09:31:01;;;;;;;;;;;;;;;23.24;58.74;98980.69;5110139;27;19955;-83
2023/10/27 09:33:27;;;;;;;;;;;;;;;23.05;58.89;98975.69;5115314;27;20440;-84
2023/10/27 09:35:53;;;;;;;;;;;;;;;22.64;60.98;98964.34;5110140;28;19972;-84
2023/10/27 09:38:18;;;;;;;;;;;;;;;22.82;60.85;98961.53;5120870;27;19915;-84
2023/10/27 09:40:45;;;;;;;;;;;;;;;23.16;60.13;98960.56;5125333;27;19920;-84
2023/10/27 09:43:21;;;;;;;;;;;;;;;23.29;58.72;98952.50;5128194;27;20372;-85
2023/10/27 09:45:53;;;;;;;;;;;;;;;23.63;56.72;98951.44;5129700;27;19921;-83
2023/10/27 09:48:23;;;;;;;;;;;;;;;23.35;57.59;98945.72;5118688;27;19937;-84
2023/10/27 09:50:51;;;;;;;;;;;;;;;23.21;59.27;98930.47;5109030;28;19922;-82
2023/10/27 09:53:18;;;;;;;;;;;;;;;23.54;58.68;98927.03;5109889;27;19926;-82
2023/10/27 09:55:43;;;;;;;;;;;;;;;22.99;59.83;98911.72;5107818;28;19919;-83
2023/10/27 09:58:08;;;;;;;;;;;;;;;22.98;59.50;98910.13;5108061;28;19966;-83
2023/10/27 10:00:34;;;;;;;;;;;;;;;23.10;58.26;98923.81;5110133;28;20010;-82
2023/10/27 10:03:00;;;;;;;;;;;;;;;22.55;59.71;98919.28;5109674;28;20285;-82
2023/10/27 10:05:26;;;;;;;;;;;;;;;22.40;60.92;98913.28;5112420;28;19926;-82
2023/10/27 10:07:55;;;;;;;;;;;;;;;22.50;61.51;98897.75;5107430;28;19919;-83
2023/10/27 10:10:20;;;;;;;;;;;;;;;22.55;60.74;98886.69;5107715;28;20672;-81
2023/10/27 10:13:01;;;;;;;;;;;;;;;22.48;60.73;98889.94;5110161;28;19920;-81
2023/10/27 10:15:27;;;;;;;;;;;;;;;22.60;61.03;98908.25;5109087;28;19915;-81
2023/10/27 10:17:52;;;;;;;;;;;;;;;23.00;58.79;98903.22;5109074;28;20335;-82
2023/10/27 10:20:40;;;;;;;;;;;;;;;23.20;58.53;98896.22;5129536;27;19927;-81
2023/10/27 10:23:06;;;;;;;;;;;;;;;22.91;59.16;98879.94;5108293;28;20433;-82
2023/10/27 10:25:31;;;;;;;;;;;;;;;22.99;59.10;98881.81;5108957;28;19915;-82
2023/10/27 10:28:09;;;;;;;;;;;;;;;23.00;59.00;98878.75;5111454;28;19968;-83
2023/10/27 10:30:43;;;;;;;;;;;;;;;23.18;57.60;98882.16;5120347;28;19926;-82
2023/10/27 10:33:16;;;;;;;;;;;;;;;23.46;56.59;98876.19;5107652;28;19919;-82
2023/10/27 10:35:45;;;;;;;;;;;;;;;23.30;57.41;98873.28;5118690;28;19915;-82
2023/10/27 10:38:34;;;;;;;;;;;;;;;23.39;55.53;98871.28;5113536;27;19915;-82
2023/10/27 10:40:59;;;;;;;;;;;;;;;23.54;56.57;98853.56;5116195;27;19915;-83
2023/10/27 10:43:33;;;;;;;;;;;;;;;23.29;55.61;98846.41;5121235;27;19922;-82
2023/10/27 10:45:59;;;;;;;;;;;;;;;22.98;55.95;98834.78;5112895;28;19926;-82
2023/10/27 10:48:26;;;;;;;;;;;;;;;23.26;55.62;98835.06;5112378;28;19954;-82
2023/10/27 10:50:53;;;;;;;;;;;;;;;23.26;56.32;98829.63;5116494;27;20269;-81
2023/10/27 10:53:24;;;;;;;;;;;;;;;23.30;56.38;98837.91;5124522;27;19927;-82
2023/10/27 10:55:50;;;;;;;;;;;;;;;23.41;55.07;98838.28;5123764;27;19941;-81
2023/10/27 10:58:25;;;;;;;;;;;;;;;23.47;55.18;98826.06;5119332;27;20003;-82
2023/10/27 11:00:51;;;;;;;;;;;;;;;23.36;56.57;98822.97;5124505;27;19916;-83
2023/10/27 11:03:17;;;;;;;;;;;;;;;23.52;56.18;98825.88;5111386;27;19921;-82
2023/10/27 11:05:43;;;;;;;;;;;;;;;23.51;55.40;98829.72;5112698;27;20314;-82
2023/10/27 11:08:08;;;;;;;;;;;;;;;23.42;56.54;98832.53;5112597;28;19922;-84
2023/10/27 11:10:34;;;;;;;;;;;;;;;23.74;55.02;98832.06;5111601;28;19944;-82
2023/10/27 11:13:04;;;;;;;;;;;;;;;23.85;54.57;98838.69;5111745;27;19916;-84
2023/10/27 11:15:55;;;;;;;;;;;;;;;23.83;54.35;98843.69;5111505;27;19923;-83
2023/10/27 11:18:26;;;;;;;;;;;;;;;23.82;54.37;98840.16;5109817;28;20324;-83
2023/10/27 11:20:51;;;;;;;;;;;;;;;23.94;54.76;98853.00;5115920;27;19915;-83
2023/10/27 11:23:17;;;;;;;;;;;;;;;24.05;54.31;98837.81;5130859;27;19931;-84
2023/10/27 11:25:43;;;;;;;;;;;;;;;23.98;53.90;98843.00;5112639;28;19915;-83
2023/10/27 11:28:26;;;;;;;;;;;;;;;24.30;54.28;98843.28;5111428;28;19922;-82
2023/10/27 11:31:01;;;;;;;;;;;;;;;24.26;51.76;98842.38;5110152;27;19964;-82
2023/10/27 11:33:26;;;;;;;;;;;;;;;24.15;52.90;98852.13;5111817;28;19931;-82
2023/10/27 11:35:52;;;;;;;;;;;;;;;24.34;49.66;98849.66;5113788;27;19955;-82
2023/10/27 11:38:17;;;;;;;;;;;;;;;24.49;49.48;98855.53;5127773;27;20031;-81
2023/10/27 11:40:45;;;;;;;;;;;;;;;24.62;50.07;98847.06;5111889;28;19935;-82
2023/10/27 11:43:10;;;;;;;;;;;;;;;24.65;51.09;98848.28;5112189;27;20449;-82
2023/10/27 11:45:36;;;;;;;;;;;;;;;24.74;50.38;98840.00;5112375;27;20015;-81
2023/10/27 11:48:01;;;;;;;;;;;;;;;24.92;49.37;98841.31;5118375;27;20014;-82
2023/10/27 11:50:26;;;;;;;;;;;;;;;24.89;48.50;98838.47;5118481;27;19946;-83
2023/10/27 11:52:51;;;;;;;;;;;;;;;25.14;48.94;98842.75;5112296;27;20002;-82
2023/10/27 11:55:17;;;;;;;;;;;;;;;25.46;49.02;98849.13;5113311;27;19915;-82
2023/10/27 11:57:43;;;;;;;;;;;;;;;25.65;47.80;98834.81;5113343;27;19919;-82
2023/10/27 12:00:08;;;;;;;;;;;;;;;25.45;47.13;98846.75;5111605;28;19976;-82
2023/10/27 12:02:34;;;;;;;;;;;;;;;25.46;49.46;98842.88;5115322;27;20297;-81
2023/10/27 12:04:59;;;;;;;;;;;;;;;25.76;47.60;98837.03;5109517;28;19963;-81
2023/10/27 12:07:24;;;;;;;;;;;;;;;25.70;46.81;98841.16;5103685;28;19989;-82
2023/10/27 12:09:50;;;;;;;;;;;;;;;25.36;48.18;98843.38;5109563;28;19915;-80
2023/10/27 12:12:15;;;;;;;;;;;;;;;25.66;47.50;98850.06;5111396;28;19916;-82
2023/10/27 12:14:41;;;;;;;;;;;;;;;25.49;47.27;98839.44;5110935;27;19915;-81
2023/10/27 12:17:06;;;;;;;;;;;;;;;25.31;47.33;98838.16;5102232;28;20430;-81
2023/10/27 12:19:32;;;;;;;;;;;;;;;25.42;45.92;98831.88;5108712;27;19995;-82
2023/10/27 12:22:05;;;;;;;;;;;;;;;25.13;47.42;98823.97;5113260;27;20269;-81
2023/10/27 12:24:33;;;;;;;;;;;;;;;25.12;47.82;98833.31;5110737;28;19926;-81
2023/10/27 12:26:59;;;;;;;;;;;;;;;25.22;47.11;98828.19;5108624;28;19958;-82
2023/10/27 12:29:26;;;;;;;;;;;;;;;24.97;48.21;98832.13;5110543;27;19959;-82
2023/10/27 12:31:51;;;;;;;;;;;;;;;24.60;50.44;98837.63;5103980;27;19969;-84
2023/10/27 12:34:17;;;;;;;;;;;;;;;24.54;50.46;98836.25;5111651;27;19950;-81
2023/10/27 12:36:42;;;;;;;;;;;;;;;24.50;50.49;98830.72;5109600;28;20300;-82